Time;durP1;ratioP1;P1;durP2;ratioP2;P2;SDS_P1;SDS_P2;PMS_P1;PMS_P2;Temp;Humidity;BMP_temperature;BMP_pressure;BME280_temperature;BME280_humidity;BME280_pressure;Samples;Min_cycle;Max_cycle;Signal;HPM_P1;HPM_P2
2022/11/15 00:01:25;;;;;;;76.45;53.30;;;16.40;68.80;;;;;;4955739;28;99385;-54
2022/11/15 00:03:51;;;;;;;76.13;53.88;;;16.30;68.70;;;;;;4954265;28;96098;-53
2022/11/15 00:06:17;;;;;;;80.05;53.78;;;16.30;68.90;;;;;;4943318;28;95093;-54
2022/11/15 00:08:42;;;;;;;76.13;54.20;;;16.30;69.00;;;;;;4943386;28;97523;-54
2022/11/15 00:11:10;;;;;;;75.50;53.65;;;16.30;68.90;;;;;;4948387;28;95803;-54
2022/11/15 00:13:36;;;;;;;76.10;53.33;;;16.30;68.90;;;;;;4946155;28;95371;-53
2022/11/15 00:16:02;;;;;;;74.60;53.40;;;16.30;68.80;;;;;;4948177;28;94814;-53
2022/11/15 00:18:29;;;;;;;73.55;53.22;;;16.30;68.80;;;;;;4938035;28;95221;-54
2022/11/15 00:20:55;;;;;;;77.05;53.72;;;16.30;68.70;;;;;;4947043;28;94673;-52
2022/11/15 00:23:21;;;;;;;75.15;53.70;;;16.30;68.70;;;;;;4945264;28;94863;-54
2022/11/15 00:25:46;;;;;;;75.78;53.35;;;16.30;68.70;;;;;;4948976;28;96084;-53
2022/11/15 00:28:12;;;;;;;75.45;53.50;;;16.30;68.80;;;;;;4943438;28;96472;-53
2022/11/15 00:30:38;;;;;;;75.15;53.22;;;16.30;68.80;;;;;;4950570;28;96830;-52
2022/11/15 00:33:05;;;;;;;75.50;53.85;;;16.30;68.70;;;;;;4944468;28;95239;-54
2022/11/15 00:35:34;;;;;;;76.07;53.20;;;16.30;68.70;;;;;;4943821;28;96116;-56
2022/11/15 00:38:00;;;;;;;75.15;53.72;;;16.30;68.60;;;;;;4944833;28;95523;-55
2022/11/15 00:40:26;;;;;;;74.85;53.42;;;16.30;68.70;;;;;;4955113;28;94992;-56
2022/11/15 00:42:52;;;;;;;75.05;53.05;;;16.30;68.70;;;;;;4943277;28;98320;-53
2022/11/15 00:45:17;;;;;;;73.75;53.30;;;16.30;68.70;;;;;;4945346;28;95255;-54
2022/11/15 00:47:46;;;;;;;73.82;53.08;;;16.30;68.70;;;;;;4943296;28;95830;-54
2022/11/15 00:50:13;;;;;;;74.90;52.63;;;16.30;68.70;;;;;;4943628;28;96020;-50
2022/11/15 00:52:38;;;;;;;73.22;52.72;;;16.20;68.80;;;;;;4953261;28;96181;-54
2022/11/15 00:55:05;;;;;;;74.05;52.67;;;16.20;68.90;;;;;;4952406;28;94999;-52
2022/11/15 00:57:31;;;;;;;72.95;52.65;;;16.20;68.80;;;;;;4952105;28;95447;-55
2022/11/15 00:59:56;;;;;;;74.32;52.75;;;16.20;68.80;;;;;;4950258;28;95042;-53
2022/11/15 01:02:22;;;;;;;74.32;53.00;;;16.20;68.70;;;;;;4948332;28;95034;-54
2022/11/15 01:04:47;;;;;;;74.45;53.05;;;16.20;68.70;;;;;;4940347;28;96500;-56
2022/11/15 01:07:13;;;;;;;74.47;52.90;;;16.20;68.70;;;;;;4941866;28;99860;-55
2022/11/15 01:09:39;;;;;;;74.25;52.95;;;16.20;68.80;;;;;;4948166;28;95114;-53
2022/11/15 01:12:05;;;;;;;74.05;52.65;;;16.20;68.70;;;;;;4947354;28;95994;-54
2022/11/15 01:14:30;;;;;;;73.85;52.92;;;16.20;68.70;;;;;;4941298;28;96253;-54
2022/11/15 01:16:56;;;;;;;74.13;52.70;;;16.20;68.70;;;;;;4942654;28;96323;-55
2022/11/15 01:19:22;;;;;;;73.97;52.50;;;16.20;68.70;;;;;;4936735;28;96071;-55
2022/11/15 01:21:51;;;;;;;73.43;52.78;;;16.20;68.70;;;;;;4943702;28;95161;-56
2022/11/15 01:24:16;;;;;;;73.35;52.70;;;16.20;68.60;;;;;;4935621;28;96639;-53
2022/11/15 01:26:42;;;;;;;73.13;52.70;;;16.20;68.70;;;;;;4945129;28;96066;-56
2022/11/15 01:29:08;;;;;;;74.72;53.13;;;16.20;68.70;;;;;;4944189;28;95488;-53
2022/11/15 01:31:33;;;;;;;74.65;53.10;;;16.20;68.70;;;;;;4938213;28;97969;-53
2022/11/15 01:33:59;;;;;;;73.63;53.45;;;16.20;68.70;;;;;;4937498;28;95248;-52
2022/11/15 01:36:25;;;;;;;74.50;52.47;;;16.20;68.70;;;;;;4946152;28;96333;-55
2022/11/15 01:38:55;;;;;;;74.43;52.70;;;16.20;68.70;;;;;;4943656;28;96879;-55
2022/11/15 01:41:26;;;;;;;73.40;52.93;;;16.20;68.70;;;;;;4949397;28;96897;-53
2022/11/15 01:43:55;;;;;;;72.65;52.08;;;16.20;68.70;;;;;;4939245;28;95476;-56
2022/11/15 01:46:29;;;;;;;73.35;52.50;;;16.10;68.70;;;;;;4953882;28;95254;-54
2022/11/15 01:49:01;;;;;;;73.03;52.45;;;16.20;68.80;;;;;;4946690;28;95133;-55
2022/11/15 01:51:29;;;;;;;72.53;52.58;;;16.10;68.70;;;;;;4951749;28;95205;-55
2022/11/15 01:54:00;;;;;;;72.85;52.70;;;16.10;68.70;;;;;;4942625;28;94936;-55
2022/11/15 01:56:30;;;;;;;72.93;52.50;;;16.10;68.70;;;;;;4949373;28;96039;-55
2022/11/15 01:58:58;;;;;;;74.65;53.20;;;16.10;68.80;;;;;;4947004;28;94852;-53
2022/11/15 02:01:25;;;;;;;72.53;51.95;;;16.10;68.80;;;;;;4952965;28;95408;-54
2022/11/15 02:04:05;;;;;;;72.05;52.05;;;16.10;68.70;;;;;;4944214;28;95068;-54
2022/11/15 02:06:31;;;;;;;73.43;52.83;;;16.10;68.70;;;;;;4947086;28;96411;-54
2022/11/15 02:08:58;;;;;;;73.35;52.25;;;16.10;68.70;;;;;;4941011;28;96002;-53
2022/11/15 02:11:24;;;;;;;73.95;52.47;;;16.10;68.80;;;;;;4953086;28;95292;-55
2022/11/15 02:13:50;;;;;;;74.00;52.38;;;16.10;68.90;;;;;;4946927;28;94952;-52
2022/11/15 02:16:45;;;;;;;71.50;51.80;;;16.10;69.50;;;;;;4948537;28;95217;-54
2022/11/15 02:19:32;;;;;;;75.10;52.80;;;16.10;68.90;;;;;;4906528;28;97514;-55
2022/11/15 02:22:35;;;;;;;72.32;52.10;;;16.10;68.80;;;;;;4945210;28;95234;-53
2022/11/15 02:25:23;;;;;;;72.68;52.15;;;16.10;68.90;;;;;;4945415;28;94494;-54
2022/11/15 02:28:06;;;;;;;71.63;51.80;;;16.00;68.90;;;;;;4945211;28;95412;-55
2022/11/15 02:31:16;;;;;;;71.55;51.75;;;16.00;68.90;;;;;;4943999;28;98873;-54
2022/11/15 02:33:56;;;;;;;71.75;51.70;;;16.00;68.90;;;;;;4947624;28;96674;-56
2022/11/15 02:36:35;;;;;;;72.00;51.75;;;16.00;69.00;;;;;;4949462;28;95455;-53
2022/11/15 02:39:17;;;;;;;71.68;52.30;;;16.00;69.00;;;;;;4941675;28;96609;-56
2022/11/15 02:42:00;;;;;;;72.38;51.80;;;16.00;69.00;;;;;;4939434;28;96508;-53
2022/11/15 02:44:43;;;;;;;71.45;51.42;;;16.00;69.10;;;;;;4953000;28;94658;-51
2022/11/15 02:47:15;;;;;;;71.57;51.63;;;16.00;69.00;;;;;;4949686;28;97875;-55
2022/11/15 02:49:46;;;;;;;72.47;52.13;;;16.00;69.00;;;;;;4941477;28;96633;-54
2022/11/15 02:52:16;;;;;;;71.60;52.03;;;16.00;69.10;;;;;;4951666;28;94407;-55
2022/11/15 02:54:41;;;;;;;72.53;51.92;;;16.00;69.20;;;;;;4950414;28;95578;-53
2022/11/15 02:57:15;;;;;;;71.72;51.75;;;15.90;69.10;;;;;;4949891;28;94820;-54
2022/11/15 03:00:05;;;;;;;71.68;51.85;;;15.90;69.20;;;;;;4943395;28;97213;-55
2022/11/15 03:02:50;;;;;;;71.72;51.22;;;15.90;69.30;;;;;;4947818;28;95939;-56
2022/11/15 03:05:35;;;;;;;71.75;51.88;;;15.90;69.20;;;;;;4936339;28;95989;-54
2022/11/15 03:08:33;;;;;;;71.32;51.50;;;15.90;69.30;;;;;;4939740;28;95310;-53
2022/11/15 03:11:11;;;;;;;71.90;52.05;;;15.90;69.10;;;;;;4945444;28;97214;-52
2022/11/15 03:14:03;;;;;;;71.55;52.03;;;15.90;69.20;;;;;;4947873;28;95928;-55
2022/11/15 03:16:37;;;;;;;70.72;51.28;;;15.90;69.30;;;;;;4938464;28;95267;-56
2022/11/15 03:19:35;;;;;;;71.30;51.65;;;15.90;69.30;;;;;;4941257;28;94598;-53
2022/11/15 03:22:04;;;;;;;71.90;51.88;;;15.90;69.20;;;;;;4936531;28;97075;-55
2022/11/15 03:24:34;;;;;;;71.22;51.35;;;15.90;69.30;;;;;;4940155;28;95912;-52
2022/11/15 03:27:01;;;;;;;70.63;51.45;;;15.90;69.40;;;;;;4945130;28;96253;-52
2022/11/15 03:29:32;;;;;;;72.03;51.53;;;15.90;69.40;;;;;;4942612;28;98775;-53
2022/11/15 03:32:03;;;;;;;71.05;51.78;;;15.90;70.10;;;;;;4937652;28;97044;-53
2022/11/15 03:34:38;;;;;;;70.63;51.00;;;15.80;69.40;;;;;;4944944;28;96336;-54
2022/11/15 03:37:04;;;;;;;71.20;51.60;;;15.80;69.40;;;;;;4948145;28;95920;-56
2022/11/15 03:39:30;;;;;;;73.40;51.22;;;15.80;69.40;;;;;;4949955;28;95788;-51
2022/11/15 03:42:26;;;;;;;71.65;51.47;;;15.80;69.50;;;;;;4951507;28;96772;-51
2022/11/15 03:45:07;;;;;;;70.80;51.15;;;15.80;69.50;;;;;;4940450;28;95522;-54
2022/11/15 03:47:52;;;;;;;70.38;51.55;;;15.80;69.60;;;;;;4944106;28;98085;-55
2022/11/15 03:50:20;;;;;;;71.43;51.90;;;15.80;69.60;;;;;;4936177;28;95614;-53
2022/11/15 03:52:48;;;;;;;70.18;50.75;;;15.80;69.60;;;;;;4944202;28;96403;-51
2022/11/15 03:55:17;;;;;;;71.05;51.05;;;15.80;69.80;;;;;;4947815;28;95455;-53
2022/11/15 03:57:43;;;;;;;71.53;51.83;;;15.80;69.60;;;;;;4941492;28;103079;-53
2022/11/15 04:00:11;;;;;;;70.82;51.53;;;15.80;69.60;;;;;;4948819;28;97005;-57
2022/11/15 04:02:36;;;;;;;71.93;51.42;;;15.70;69.70;;;;;;4940372;28;96580;-53
2022/11/15 04:05:02;;;;;;;73.97;51.92;;;15.70;69.80;;;;;;4940548;28;98171;-53
2022/11/15 04:07:28;;;;;;;70.88;51.47;;;15.70;69.80;;;;;;4927598;28;95046;-52
2022/11/15 04:10:03;;;;;;;70.97;51.60;;;15.70;70.00;;;;;;4943285;28;96110;-55
2022/11/15 04:12:33;;;;;;;70.15;51.70;;;15.70;69.80;;;;;;4940829;28;96128;-53
2022/11/15 04:15:20;;;;;;;70.75;51.13;;;15.70;69.70;;;;;;4943194;28;94869;-53
2022/11/15 04:17:54;;;;;;;70.80;51.30;;;15.70;69.90;;;;;;4942813;28;97318;-55
2022/11/15 04:26:06;;;;;;;70.45;51.38;;;15.70;70.00;;;;;;4941465;28;95159;-56
2022/11/15 04:28:32;;;;;;;70.75;51.55;;;15.60;70.00;;;;;;4942042;28;95528;-54
2022/11/15 04:30:58;;;;;;;71.32;51.35;;;15.60;70.00;;;;;;4942171;28;96544;-54
2022/11/15 04:33:24;;;;;;;69.65;51.13;;;15.60;70.10;;;;;;4941042;28;96727;-56
2022/11/15 04:38:35;;;;;;;69.07;50.72;;;15.60;70.00;;;;;;4947957;28;95429;-54
2022/11/15 04:41:00;;;;;;;70.15;51.30;;;15.60;70.00;;;;;;4941172;28;95189;-54
2022/11/15 04:43:26;;;;;;;69.75;50.70;;;15.60;70.20;;;;;;4937188;28;97326;-54
2022/11/15 04:45:52;;;;;;;69.82;51.22;;;15.60;70.10;;;;;;4933313;28;99277;-56
2022/11/15 04:48:18;;;;;;;70.35;50.88;;;15.60;70.20;;;;;;4943204;28;96165;-52
2022/11/15 04:50:43;;;;;;;70.47;51.13;;;15.60;70.20;;;;;;4943248;28;95285;-53
2022/11/15 04:53:09;;;;;;;69.90;51.28;;;15.50;70.10;;;;;;4945988;28;96311;-54
2022/11/15 04:55:34;;;;;;;70.57;50.95;;;15.60;70.20;;;;;;4955063;28;95209;-56
2022/11/15 04:58:01;;;;;;;70.97;51.20;;;15.50;70.10;;;;;;4951969;28;94674;-53
2022/11/15 05:00:28;;;;;;;70.68;50.92;;;15.50;70.00;;;;;;4939742;28;95054;-54
2022/11/15 05:05:38;;;;;;;69.30;50.50;;;15.50;70.20;;;;;;4939947;28;94823;-54
2022/11/15 05:08:04;;;;;;;69.75;50.65;;;15.50;70.30;;;;;;4943308;28;97396;-53
2022/11/15 05:10:30;;;;;;;70.05;50.95;;;15.50;70.40;;;;;;4944985;28;95203;-54
2022/11/15 05:12:56;;;;;;;69.95;50.97;;;15.50;70.40;;;;;;4954240;28;95900;-52
2022/11/15 05:15:21;;;;;;;69.50;50.72;;;15.50;70.40;;;;;;4942007;28;97448;-57
2022/11/15 05:17:47;;;;;;;70.55;50.85;;;15.50;70.50;;;;;;4942956;28;95316;-53
2022/11/15 05:20:13;;;;;;;71.30;50.90;;;15.40;70.50;;;;;;4939288;28;97459;-53
2022/11/15 05:22:39;;;;;;;70.18;50.67;;;15.40;70.50;;;;;;4936897;28;95675;-51
2022/11/15 05:25:06;;;;;;;69.68;50.92;;;15.50;70.60;;;;;;4943947;28;94355;-54
2022/11/15 05:27:33;;;;;;;71.63;51.03;;;15.40;70.50;;;;;;4941815;28;94996;-52
2022/11/15 05:29:59;;;;;;;70.63;50.92;;;15.40;70.60;;;;;;4945348;28;95994;-51
2022/11/15 05:32:25;;;;;;;71.80;50.58;;;15.50;70.60;;;;;;4937555;28;97539;-54
2022/11/15 05:34:51;;;;;;;70.43;51.05;;;15.40;70.60;;;;;;4942461;28;97538;-55
2022/11/15 05:37:17;;;;;;;70.88;50.60;;;15.40;70.60;;;;;;4942807;28;95026;-53
2022/11/15 05:39:43;;;;;;;70.07;51.15;;;15.40;70.60;;;;;;4943316;28;98428;-55
2022/11/15 05:42:14;;;;;;;74.15;51.53;;;15.40;70.60;;;;;;4943490;28;95370;-54
2022/11/15 05:44:47;;;;;;;73.03;51.77;;;15.40;70.70;;;;;;4951512;28;95090;-51
2022/11/15 05:47:18;;;;;;;74.22;51.80;;;15.40;70.80;;;;;;4947920;28;95143;-54
2022/11/15 05:49:45;;;;;;;75.13;52.25;;;15.40;71.00;;;;;;4934828;28;94544;-55
2022/11/15 05:52:16;;;;;;;79.63;52.63;;;15.40;71.90;;;;;;4944131;28;97153;-54
2022/11/15 05:54:42;;;;;;;77.18;52.60;;;15.40;71.30;;;;;;4946126;28;95112;-55
2022/11/15 05:57:08;;;;;;;79.75;52.70;;;15.40;71.40;;;;;;4942981;28;97764;-51
2022/11/15 05:59:35;;;;;;;77.28;52.58;;;15.40;71.50;;;;;;4942901;28;95965;-51
2022/11/15 06:02:01;;;;;;;81.03;52.67;;;15.40;71.70;;;;;;4950003;28;98077;-52
2022/11/15 06:04:27;;;;;;;82.93;52.75;;;15.40;72.00;;;;;;4946390;28;95819;-53
2022/11/15 06:06:52;;;;;;;79.32;53.25;;;15.30;71.90;;;;;;4947369;28;96508;-51
2022/11/15 06:09:18;;;;;;;86.65;53.42;;;15.30;72.20;;;;;;4948351;28;97470;-54
2022/11/15 06:11:43;;;;;;;80.05;53.60;;;15.30;72.30;;;;;;4948475;28;96665;-55
2022/11/15 06:14:09;;;;;;;84.03;54.00;;;15.40;72.40;;;;;;4948937;28;95658;-56
2022/11/15 06:16:35;;;;;;;81.13;52.95;;;15.30;72.40;;;;;;4941866;28;95429;-53
2022/11/15 06:19:00;;;;;;;82.88;54.47;;;15.30;72.30;;;;;;4937958;28;95314;-54
2022/11/15 06:21:27;;;;;;;86.90;53.78;;;15.30;72.30;;;;;;4951446;28;96052;-54
2022/11/15 06:23:53;;;;;;;84.55;54.47;;;15.30;72.40;;;;;;4948468;28;95971;-54
2022/11/15 06:26:19;;;;;;;85.03;54.58;;;15.30;72.40;;;;;;4944997;28;95068;-55
2022/11/15 06:28:45;;;;;;;82.90;53.70;;;15.30;72.30;;;;;;4941826;28;96166;-54
2022/11/15 06:31:11;;;;;;;85.72;54.03;;;15.30;72.20;;;;;;4951564;28;95378;-54
2022/11/15 06:33:38;;;;;;;84.32;54.13;;;15.20;72.30;;;;;;4951633;28;97743;-52
2022/11/15 06:36:06;;;;;;;86.85;53.80;;;15.20;72.50;;;;;;4953879;28;96777;-54
2022/11/15 06:38:32;;;;;;;84.82;54.15;;;15.20;72.50;;;;;;4952921;28;94424;-55
2022/11/15 06:41:06;;;;;;;82.70;53.53;;;15.20;72.40;;;;;;4963356;28;96387;-54
2022/11/15 06:43:33;;;;;;;82.80;53.35;;;15.20;72.40;;;;;;4951937;28;101698;-55
2022/11/15 06:45:59;;;;;;;85.30;52.63;;;15.20;72.30;;;;;;4958236;28;97254;-54
2022/11/15 06:48:25;;;;;;;81.75;54.17;;;15.20;72.30;;;;;;4959897;28;95202;-54
2022/11/15 06:50:56;;;;;;;82.68;53.40;;;15.20;72.40;;;;;;4962321;28;95213;-54
2022/11/15 06:53:22;;;;;;;85.93;53.53;;;15.20;72.40;;;;;;4948996;28;96248;-54
2022/11/15 06:55:47;;;;;;;82.47;53.65;;;15.20;72.30;;;;;;4954539;28;99459;-52
2022/11/15 06:58:13;;;;;;;82.57;54.20;;;15.20;72.20;;;;;;4948012;28;95178;-51
2022/11/15 07:00:40;;;;;;;78.25;52.83;;;15.20;72.20;;;;;;4962213;28;95038;-55
2022/11/15 07:03:06;;;;;;;81.57;53.13;;;15.20;72.20;;;;;;4949286;28;96501;-54
2022/11/15 07:05:31;;;;;;;81.22;54.30;;;15.20;72.30;;;;;;4962476;28;97972;-56
2022/11/15 07:07:58;;;;;;;87.22;54.13;;;15.10;72.30;;;;;;4956371;28;94824;-54
2022/11/15 07:10:25;;;;;;;79.57;53.00;;;15.10;72.20;;;;;;4959397;28;97766;-54
2022/11/15 07:12:52;;;;;;;84.82;53.65;;;15.20;72.30;;;;;;4955587;28;100064;-52
2022/11/15 07:15:18;;;;;;;79.47;53.60;;;15.20;72.20;;;;;;4956775;28;95357;-54
2022/11/15 07:17:44;;;;;;;79.90;52.95;;;15.20;72.10;;;;;;4958317;28;94792;-53
2022/11/15 07:20:11;;;;;;;80.10;53.08;;;15.20;72.10;;;;;;4956184;28;96071;-53
2022/11/15 07:22:36;;;;;;;78.35;52.83;;;15.20;72.20;;;;;;4953581;28;94996;-53
2022/11/15 07:25:02;;;;;;;79.80;52.92;;;15.20;72.20;;;;;;4948090;28;94752;-53
2022/11/15 07:27:28;;;;;;;76.07;52.75;;;15.20;72.10;;;;;;4959810;28;94000;-53
2022/11/15 07:29:54;;;;;;;80.88;52.92;;;15.20;72.00;;;;;;4951259;28;95440;-51
2022/11/15 07:32:19;;;;;;;80.93;53.05;;;15.20;71.90;;;;;;4963438;28;95038;-54
2022/11/15 07:34:46;;;;;;;76.55;52.67;;;15.10;71.90;;;;;;4952534;28;97116;-53
2022/11/15 07:37:11;;;;;;;76.55;52.80;;;15.20;72.00;;;;;;4964295;28;95062;-53
2022/11/15 07:39:37;;;;;;;79.57;52.83;;;15.20;72.00;;;;;;4955893;28;98119;-55
2022/11/15 07:44:47;;;;;;;78.57;52.78;;;15.20;71.80;;;;;;4957707;28;95548;-54
2022/11/15 07:47:13;;;;;;;75.28;52.58;;;15.20;71.70;;;;;;4957907;28;98483;-54
2022/11/15 07:49:38;;;;;;;76.05;52.47;;;15.20;71.70;;;;;;4941647;28;96165;-55
2022/11/15 07:52:04;;;;;;;75.82;52.70;;;15.20;71.70;;;;;;4953039;28;96678;-55
2022/11/15 07:54:29;;;;;;;78.55;52.80;;;15.20;71.70;;;;;;4950619;28;95274;-53
2022/11/15 07:56:55;;;;;;;77.25;52.53;;;15.20;71.70;;;;;;4961257;28;95396;-55
2022/11/15 07:59:21;;;;;;;74.88;52.28;;;15.20;71.60;;;;;;4946672;28;96555;-55
2022/11/15 08:01:46;;;;;;;77.20;51.97;;;15.20;71.50;;;;;;4953402;28;95650;-53
2022/11/15 08:04:12;;;;;;;74.05;51.85;;;15.20;71.50;;;;;;4950381;28;94704;-53
2022/11/15 08:06:38;;;;;;;75.18;52.33;;;15.20;71.50;;;;;;4956304;28;95327;-54
2022/11/15 08:09:03;;;;;;;74.65;52.58;;;15.20;71.50;;;;;;4946570;28;97795;-55
2022/11/15 08:11:29;;;;;;;73.72;51.90;;;15.20;71.50;;;;;;4952459;28;95115;-54
2022/11/15 08:13:55;;;;;;;74.85;52.03;;;15.20;71.50;;;;;;4955318;28;95892;-52
2022/11/15 08:16:21;;;;;;;74.15;51.60;;;15.20;71.50;;;;;;4947451;28;94534;-55
2022/11/15 08:18:47;;;;;;;74.20;52.03;;;15.20;72.20;;;;;;4951531;28;95518;-53
2022/11/15 08:21:20;;;;;;;74.50;52.20;;;15.20;71.50;;;;;;4949347;28;97070;-54
2022/11/15 08:23:46;;;;;;;76.00;52.20;;;15.20;71.30;;;;;;4944901;28;97952;-56
2022/11/15 08:26:12;;;;;;;74.22;51.78;;;15.30;71.10;;;;;;4955436;28;98344;-54
2022/11/15 08:28:38;;;;;;;76.10;52.05;;;15.20;71.00;;;;;;4950761;28;97265;-54
2022/11/15 08:31:04;;;;;;;74.03;52.10;;;15.30;71.10;;;;;;4947221;28;96371;-55
2022/11/15 08:33:32;;;;;;;76.82;52.17;;;15.30;71.10;;;;;;4953700;28;96322;-52
2022/11/15 08:35:59;;;;;;;73.68;51.63;;;15.30;71.00;;;;;;4948570;28;95628;-53
2022/11/15 08:38:25;;;;;;;74.20;51.85;;;15.30;70.30;;;;;;4956493;28;95133;-52
2022/11/15 08:40:53;;;;;;;74.45;51.95;;;15.30;70.90;;;;;;4948460;28;94482;-55
2022/11/15 08:43:19;;;;;;;73.78;51.80;;;15.30;70.80;;;;;;4960255;28;94653;-52
2022/11/15 08:45:45;;;;;;;74.38;52.13;;;15.30;70.70;;;;;;4945843;28;98267;-54
2022/11/15 08:48:10;;;;;;;74.80;51.50;;;15.30;70.80;;;;;;4953285;28;97583;-55
2022/11/15 08:50:36;;;;;;;75.57;51.70;;;15.30;70.60;;;;;;4954380;28;95897;-53
2022/11/15 08:53:07;;;;;;;74.95;52.13;;;15.30;70.70;;;;;;4954060;28;95503;-53
2022/11/15 08:55:32;;;;;;;72.70;51.10;;;15.30;71.30;;;;;;4948835;28;95142;-52
2022/11/15 08:57:58;;;;;;;74.78;51.88;;;15.30;70.70;;;;;;4953397;28;96800;-54
2022/11/15 09:00:24;;;;;;;72.35;51.28;;;15.30;70.60;;;;;;4955304;28;95981;-51
2022/11/15 09:02:49;;;;;;;72.85;51.10;;;15.30;70.60;;;;;;4947989;28;97247;-54
2022/11/15 09:05:15;;;;;;;73.88;51.42;;;15.30;70.60;;;;;;4945948;28;94360;-56
2022/11/15 09:07:41;;;;;;;74.03;52.05;;;15.30;70.50;;;;;;4949168;28;97579;-54
2022/11/15 09:10:07;;;;;;;76.07;51.92;;;15.30;70.40;;;;;;4949162;28;95191;-54
2022/11/15 09:12:33;;;;;;;74.78;51.40;;;15.30;70.40;;;;;;4953636;28;97540;-54
2022/11/15 09:14:58;;;;;;;75.63;51.15;;;15.40;70.50;;;;;;4948298;28;97312;-54
2022/11/15 09:17:24;;;;;;;71.97;51.15;;;15.30;70.40;;;;;;4954575;28;95447;-49
2022/11/15 09:19:50;;;;;;;71.70;51.20;;;15.30;70.30;;;;;;4948336;28;94921;-50
2022/11/15 09:22:15;;;;;;;71.32;51.15;;;15.40;70.40;;;;;;4947756;28;94735;-50
2022/11/15 09:24:41;;;;;;;73.97;51.70;;;15.40;70.30;;;;;;4947215;28;96972;-52
2022/11/15 09:27:06;;;;;;;70.97;51.17;;;15.40;70.30;;;;;;4945890;28;96300;-54
2022/11/15 09:29:32;;;;;;;73.43;51.92;;;15.40;70.20;;;;;;4949871;28;95324;-54
2022/11/15 09:31:58;;;;;;;74.28;51.72;;;15.40;70.20;;;;;;4950278;28;95129;-55
2022/11/15 09:34:23;;;;;;;71.90;51.00;;;15.40;70.20;;;;;;4953511;28;95960;-55
2022/11/15 09:36:49;;;;;;;73.88;51.47;;;15.40;70.00;;;;;;4960335;28;96004;-54
2022/11/15 09:39:15;;;;;;;72.03;51.03;;;15.40;70.00;;;;;;4949832;28;95304;-53
2022/11/15 09:42:24;;;;;;;70.82;50.75;;;15.50;70.00;;;;;;4947531;28;95997;-53
2022/11/15 09:45:12;;;;;;;71.13;51.20;;;15.50;70.00;;;;;;4931995;28;95523;-55
2022/11/15 09:47:37;;;;;;;71.75;51.42;;;15.50;69.90;;;;;;4948156;28;95124;-53
2022/11/15 09:50:11;;;;;;;72.35;51.00;;;15.50;70.00;;;;;;4945014;28;98269;-54
2022/11/15 09:52:39;;;;;;;71.05;50.83;;;15.50;69.80;;;;;;4949940;28;96273;-54
2022/11/15 09:55:07;;;;;;;71.97;50.53;;;15.50;69.80;;;;;;4955948;28;94296;-54
2022/11/15 09:58:03;;;;;;;71.00;50.85;;;15.50;69.80;;;;;;4953627;28;95177;-56
2022/11/15 10:00:41;;;;;;;73.63;51.25;;;15.50;69.80;;;;;;4942701;28;95470;-56
2022/11/15 10:03:15;;;;;;;73.63;51.30;;;15.50;69.60;;;;;;4951822;28;97918;-52
2022/11/15 10:05:48;;;;;;;74.10;51.53;;;15.60;69.70;;;;;;4942653;28;95116;-52
2022/11/15 10:08:38;;;;;;;72.60;51.17;;;15.60;69.60;;;;;;4953288;28;95267;-53
2022/11/15 10:11:10;;;;;;;75.10;50.95;;;15.60;69.50;;;;;;4946285;28;97874;-53
2022/11/15 10:13:42;;;;;;;73.65;50.88;;;15.60;69.50;;;;;;4953768;28;95253;-54
2022/11/15 10:16:18;;;;;;;73.80;51.05;;;15.60;70.20;;;;;;4945980;28;95018;-54
2022/11/15 10:19:11;;;;;;;72.03;50.95;;;15.60;69.40;;;;;;4948417;28;100178;-56
2022/11/15 10:21:46;;;;;;;72.80;51.05;;;15.60;69.40;;;;;;4945402;28;94768;-55
2022/11/15 10:24:12;;;;;;;74.47;51.17;;;15.60;69.30;;;;;;4948438;28;96960;-53
2022/11/15 10:26:45;;;;;;;71.60;51.05;;;15.60;69.30;;;;;;4947684;28;97744;-54
2022/11/15 10:29:11;;;;;;;71.95;51.10;;;15.60;69.30;;;;;;4951673;28;96349;-54
2022/11/15 10:31:40;;;;;;;70.93;50.75;;;15.60;69.30;;;;;;4951482;28;95098;-55
2022/11/15 10:34:21;;;;;;;71.95;51.08;;;15.60;69.30;;;;;;4953452;28;95291;-55
2022/11/15 10:36:58;;;;;;;71.95;51.38;;;15.60;69.30;;;;;;4950040;28;96598;-54
2022/11/15 10:39:25;;;;;;;70.53;50.63;;;15.60;69.30;;;;;;4945882;28;95394;-55
2022/11/15 10:41:51;;;;;;;72.65;51.15;;;15.60;69.30;;;;;;4952648;28;95032;-53
2022/11/15 10:44:21;;;;;;;71.50;51.38;;;15.60;69.30;;;;;;4949361;28;96926;-55
2022/11/15 10:47:08;;;;;;;72.13;51.13;;;15.60;69.20;;;;;;4945164;28;97038;-55
2022/11/15 10:49:34;;;;;;;70.90;50.83;;;15.60;69.20;;;;;;4935145;28;97101;-55
2022/11/15 10:52:12;;;;;;;71.07;50.83;;;15.60;69.10;;;;;;4956350;28;95252;-54
2022/11/15 10:54:47;;;;;;;71.72;51.13;;;15.70;69.20;;;;;;4951172;28;97963;-55
2022/11/15 10:57:19;;;;;;;74.18;51.20;;;15.70;69.10;;;;;;4948446;28;96457;-54
2022/11/15 11:00:04;;;;;;;72.53;51.05;;;15.60;69.00;;;;;;4947881;28;95469;-55
2022/11/15 11:02:56;;;;;;;73.10;50.95;;;15.70;69.10;;;;;;4945482;28;97321;-54
2022/11/15 11:05:36;;;;;;;74.18;51.38;;;15.60;69.00;;;;;;4944330;28;95055;-54
2022/11/15 11:08:24;;;;;;;70.67;50.70;;;15.70;69.00;;;;;;4940654;28;97299;-56
2022/11/15 11:11:01;;;;;;;73.40;50.90;;;15.70;69.00;;;;;;4942853;28;95286;-58
2022/11/15 11:13:26;;;;;;;72.45;51.10;;;15.70;69.00;;;;;;4954002;28;94649;-55
2022/11/15 11:16:42;;;;;;;74.43;51.15;;;15.70;69.00;;;;;;4953620;28;95345;-54
2022/11/15 11:19:44;;;;;;;72.53;50.90;;;15.70;69.00;;;;;;4940804;28;95088;-55
2022/11/15 11:22:26;;;;;;;72.97;50.85;;;15.60;69.00;;;;;;4945477;28;98459;-53
2022/11/15 11:25:16;;;;;;;72.10;50.83;;;15.70;69.00;;;;;;4947150;28;95914;-52
2022/11/15 11:27:47;;;;;;;72.70;51.08;;;15.60;69.00;;;;;;4945498;28;96377;-54
2022/11/15 11:30:24;;;;;;;72.67;50.57;;;15.70;69.00;;;;;;4962194;28;95269;-54
2022/11/15 11:33:00;;;;;;;71.80;50.97;;;15.70;69.00;;;;;;4950435;28;97706;-58
2022/11/15 11:35:41;;;;;;;72.90;50.88;;;15.70;69.00;;;;;;4952721;28;95166;-55
2022/11/15 11:38:32;;;;;;;72.83;50.87;;;15.70;69.00;;;;;;4954122;28;95797;-54
2022/11/15 11:41:03;;;;;;;72.43;51.15;;;15.70;69.00;;;;;;4957356;28;94915;-54
2022/11/15 11:43:47;;;;;;;71.43;50.85;;;15.70;69.00;;;;;;4950985;28;95802;-54
2022/11/15 11:46:48;;;;;;;71.93;51.03;;;15.70;69.10;;;;;;4950545;28;95275;-54
2022/11/15 11:49:20;;;;;;;72.00;50.80;;;15.70;69.00;;;;;;4960636;28;95849;-54
2022/11/15 11:51:50;;;;;;;72.95;50.95;;;15.70;69.00;;;;;;4951321;28;94734;-55
2022/11/15 11:54:27;;;;;;;71.50;50.95;;;15.70;69.00;;;;;;4956747;28;95440;-56
2022/11/15 11:56:54;;;;;;;72.68;51.03;;;15.70;69.00;;;;;;4950075;28;94724;-56
2022/11/15 11:59:48;;;;;;;72.75;51.17;;;15.70;69.80;;;;;;4953567;28;96214;-55
2022/11/15 12:02:37;;;;;;;71.55;50.67;;;15.60;69.10;;;;;;4947595;28;97122;-55
2022/11/15 12:05:27;;;;;;;72.10;51.03;;;15.70;69.00;;;;;;4952620;28;95006;-57
2022/11/15 12:07:56;;;;;;;71.32;51.10;;;15.70;69.00;;;;;;4950689;28;93955;-56
2022/11/15 12:10:24;;;;;;;71.28;51.17;;;15.70;69.00;;;;;;4954824;28;95238;-55
2022/11/15 12:13:11;;;;;;;71.22;50.55;;;15.70;69.00;;;;;;4946763;28;95214;-54
2022/11/15 12:15:45;;;;;;;71.30;50.67;;;15.70;69.00;;;;;;4950042;28;96200;-57
2022/11/15 12:18:16;;;;;;;71.63;50.47;;;15.70;69.10;;;;;;4944200;28;96413;-55
2022/11/15 12:20:54;;;;;;;71.17;50.77;;;15.60;69.00;;;;;;4953722;28;94746;-54
2022/11/15 12:23:28;;;;;;;73.35;50.85;;;15.60;69.00;;;;;;4947559;28;95253;-55
2022/11/15 12:26:02;;;;;;;71.90;50.50;;;15.70;69.00;;;;;;4960799;28;95390;-54
2022/11/15 12:28:42;;;;;;;71.40;50.92;;;15.70;69.10;;;;;;4947745;28;95888;-56
2022/11/15 12:31:26;;;;;;;72.13;50.78;;;15.70;69.80;;;;;;4951125;28;95345;-54
2022/11/15 12:33:56;;;;;;;71.20;50.90;;;15.60;69.10;;;;;;4942236;28;95805;-56
2022/11/15 12:36:22;;;;;;;70.57;50.60;;;15.60;69.10;;;;;;4950814;28;95470;-54
2022/11/15 12:38:48;;;;;;;70.63;50.65;;;15.60;69.00;;;;;;4951939;28;95201;-54
2022/11/15 12:41:19;;;;;;;73.30;50.80;;;15.70;69.00;;;;;;4953157;28;95986;-54
2022/11/15 12:43:46;;;;;;;71.28;50.45;;;15.70;69.00;;;;;;4957506;28;95477;-57
2022/11/15 12:46:28;;;;;;;71.75;51.00;;;15.70;69.00;;;;;;4957971;28;96583;-54
2022/11/15 12:48:58;;;;;;;;;;;15.70;69.00;;;;;;4942460;28;95457;-55
2022/11/15 12:51:41;;;;;;;73.25;50.72;;;15.70;69.10;;;;;;4954160;28;96388;-57
2022/11/15 12:54:22;;;;;;;71.35;50.85;;;15.70;69.00;;;;;;4956014;28;94980;-54
2022/11/15 12:57:03;;;;;;;70.90;50.60;;;15.70;69.10;;;;;;4952875;28;96311;-55
2022/11/15 13:00:03;;;;;;;70.60;50.53;;;15.60;69.00;;;;;;4942932;28;94800;-54
2022/11/15 13:02:43;;;;;;;70.72;50.78;;;15.70;69.10;;;;;;4918030;28;95190;-55